createdAt,value
2022-09-12T00:01:28.212Z,101249.61
2022-09-12T00:03:59.652Z,101252.04
2022-09-12T00:06:37.230Z,101252.38
2022-09-12T00:09:09.089Z,101254.64
2022-09-12T00:11:42.622Z,101253.06
2022-09-12T00:14:13.322Z,101252.38
2022-09-12T00:16:42.310Z,101250.78
2022-09-12T00:19:11.098Z,101253.05
2022-09-12T00:21:41.018Z,101251.12
2022-09-12T00:24:10.520Z,101257.39
2022-09-12T00:26:38.595Z,101253.55
2022-09-12T00:29:06.904Z,101256.84
2022-09-12T00:31:35.053Z,101256.84
2022-09-12T00:34:03.210Z,101255.80
2022-09-12T00:36:31.588Z,101249.88
2022-09-12T00:38:59.680Z,101250.55
2022-09-12T00:41:27.623Z,101247.07
2022-09-12T00:44:01.844Z,101251.23
2022-09-12T00:46:55.205Z,101247.23
2022-09-12T00:49:41.811Z,101248.44
2022-09-12T00:52:40.496Z,101249.81
2022-09-12T00:55:15.714Z,101250.15
2022-09-12T00:58:00.290Z,101250.48
2022-09-12T01:00:29.951Z,101250.98
2022-09-12T01:03:02.885Z,101251.16
2022-09-12T01:05:34.537Z,101253.75
2022-09-12T01:08:04.473Z,101255.83
2022-09-12T01:10:35.836Z,101254.95
2022-09-12T01:13:06.777Z,101253.02
2022-09-12T01:15:36.998Z,101254.75
2022-09-12T01:18:21.618Z,101258.39
2022-09-12T01:21:01.877Z,101262.72
2022-09-12T01:23:47.870Z,101259.92
2022-09-12T01:26:30.883Z,101259.90
2022-09-12T01:29:30.033Z,101258.66
2022-09-12T01:32:29.445Z,101257.60
2022-09-12T01:35:21.742Z,101253.39
2022-09-12T01:38:09.363Z,101256.84
2022-09-12T01:40:55.141Z,101262.39
2022-09-12T01:43:33.048Z,101259.57
2022-09-12T01:46:12.583Z,101262.33
2022-09-12T01:48:47.911Z,101265.63
2022-09-12T01:51:42.826Z,101262.65
2022-09-12T01:54:21.207Z,101261.42
2022-09-12T01:56:54.284Z,101263.51
2022-09-12T01:59:37.451Z,101265.94
2022-09-12T02:02:15.221Z,101266.61
2022-09-12T02:04:53.043Z,101262.26
2022-09-12T02:07:29.211Z,101263.13
2022-09-12T02:10:08.541Z,101263.81
2022-09-12T02:13:01.908Z,101264.33
2022-09-12T02:15:37.140Z,101265.00
2022-09-12T02:18:07.053Z,101265.85
2022-09-12T02:20:48.448Z,101266.35
2022-09-12T02:23:39.751Z,101264.60
2022-09-12T02:26:13.500Z,101267.90
2022-09-12T02:28:43.920Z,101269.45
2022-09-12T02:31:25.473Z,101272.39
2022-09-12T02:34:08.385Z,101272.36
2022-09-12T02:36:48.441Z,101272.70
2022-09-12T02:39:21.332Z,101274.42
2022-09-12T02:41:55.061Z,101281.54
2022-09-12T02:44:24.630Z,101280.46
2022-09-12T02:46:58.885Z,101279.58
2022-09-12T02:49:27.529Z,101278.54
2022-09-12T02:51:56.111Z,101279.92
2022-09-12T02:54:26.051Z,101277.30
2022-09-12T02:56:54.197Z,101276.77
2022-09-12T02:59:24.211Z,101275.73
2022-09-12T03:01:59.943Z,101274.00
2022-09-12T03:04:49.849Z,101275.55
2022-09-12T03:07:44.233Z,101278.84
2022-09-12T03:10:50.704Z,101280.91
2022-09-12T03:13:25.333Z,101285.08
2022-09-12T03:15:55.958Z,101288.03
2022-09-12T03:18:42.253Z,101286.80
2022-09-12T03:21:36.233Z,101285.74
2022-09-12T03:24:19.603Z,101289.21
2022-09-12T03:27:01.253Z,101291.81
2022-09-12T03:29:31.166Z,101290.74
2022-09-12T03:31:59.465Z,101295.77
2022-09-12T03:34:28.249Z,101299.73
2022-09-12T03:36:56.707Z,101308.93
2022-09-12T03:39:26.947Z,101310.83
2022-09-12T03:41:56.399Z,101308.55
2022-09-12T03:44:25.943Z,101307.84
2022-09-12T03:46:54.419Z,101310.78
2022-09-12T03:49:22.389Z,101310.77
2022-09-12T03:51:50.764Z,101311.95
2022-09-12T03:54:18.732Z,101313.50
2022-09-12T03:56:46.853Z,101313.14
2022-09-12T03:59:15.336Z,101315.73
2022-09-12T04:01:43.372Z,101316.94
2022-09-12T04:04:11.424Z,101319.69
2022-09-12T04:06:39.541Z,101320.55
2022-09-12T04:09:07.667Z,101323.16
2022-09-12T04:11:36.147Z,101333.76
2022-09-12T04:14:04.119Z,101332.54
2022-09-12T04:16:33.194Z,101334.11
2022-09-12T04:19:01.482Z,101332.73
2022-09-12T04:21:29.522Z,101333.45
2022-09-12T04:23:57.523Z,101334.34
2022-09-12T04:26:25.594Z,101334.39
2022-09-12T04:28:57.784Z,101333.40
2022-09-12T04:31:26.388Z,101336.39
2022-09-12T04:34:01.414Z,101337.98
2022-09-12T04:36:29.960Z,101339.77
2022-09-12T04:38:58.746Z,101337.20
2022-09-12T04:41:30.283Z,101341.41
2022-09-12T04:44:03.703Z,101339.36
2022-09-12T04:46:38.933Z,101342.56
2022-09-12T04:49:07.305Z,101337.23
2022-09-12T04:51:37.639Z,101340.41
2022-09-12T04:54:09.436Z,101342.55
2022-09-12T04:56:40.128Z,101337.01
2022-09-12T04:59:08.903Z,101335.96
2022-09-12T05:01:37.079Z,101332.48
2022-09-12T05:04:05.989Z,101335.27
2022-09-12T05:06:36.707Z,101328.48
2022-09-12T05:09:06.253Z,101324.58
2022-09-12T05:12:02.638Z,101319.58
2022-09-12T05:14:25.905Z,101330.48
2022-09-12T05:16:54.053Z,101332.03
2022-09-12T05:19:23.445Z,101338.96
2022-09-12T05:21:51.649Z,101335.65
2022-09-12T05:24:19.822Z,101336.86
2022-09-12T05:26:47.997Z,101338.20
2022-09-12T05:29:16.577Z,101338.98
2022-09-12T05:31:44.650Z,101336.75
2022-09-12T05:34:12.924Z,101339.78
2022-09-12T05:36:41.110Z,101338.41
2022-09-12T05:39:09.886Z,101338.09
2022-09-12T05:41:37.854Z,101340.35
2022-09-12T05:44:07.778Z,101339.38
2022-09-12T05:46:44.235Z,101344.70
2022-09-12T05:49:13.678Z,101337.96
2022-09-12T05:51:45.274Z,101339.96
2022-09-12T05:54:18.001Z,101344.45
2022-09-12T05:56:46.566Z,101342.61
2022-09-12T05:59:17.897Z,101344.25
2022-09-12T06:01:46.292Z,101346.17
2022-09-12T06:04:14.808Z,101347.19
2022-09-12T06:06:45.291Z,101347.48
2022-09-12T06:09:15.512Z,101347.76
2022-09-12T06:11:44.562Z,101344.66
2022-09-12T06:14:15.643Z,101346.80
2022-09-12T06:16:44.147Z,101344.17
2022-09-12T06:19:20.525Z,101346.21
2022-09-12T06:21:50.107Z,101345.95
2022-09-12T06:24:19.702Z,101344.96
2022-09-12T06:26:49.103Z,101346.63
2022-09-12T06:29:17.379Z,101348.13
2022-09-12T06:31:45.934Z,101350.83
2022-09-12T06:34:15.875Z,101354.35
2022-09-12T06:36:47.119Z,101358.95
2022-09-12T06:39:18.158Z,101356.52
2022-09-12T06:41:46.860Z,101359.53
2022-09-12T06:44:21.045Z,101359.39
2022-09-12T06:46:49.650Z,101358.05
2022-09-12T06:49:17.999Z,101364.73
2022-09-12T06:51:46.086Z,101368.99
2022-09-12T06:54:16.570Z,101369.86
2022-09-12T06:56:45.208Z,101371.64
2022-09-12T06:59:13.375Z,101370.30
2022-09-12T07:01:42.157Z,101374.04
2022-09-12T07:04:10.789Z,101372.56
2022-09-12T07:06:41.659Z,101372.70
2022-09-12T07:09:13.235Z,101375.98
2022-09-12T07:11:42.666Z,101368.88
2022-09-12T07:14:14.165Z,101377.91
2022-09-12T07:16:42.535Z,101379.70
2022-09-12T07:19:12.207Z,101383.45
2022-09-12T07:21:40.891Z,101386.89
2022-09-12T07:24:10.492Z,101384.23
2022-09-12T07:26:40.888Z,101384.77
2022-09-12T07:29:35.991Z,101382.90
2022-09-12T07:32:06.103Z,101384.14
2022-09-12T07:34:35.967Z,101380.92
2022-09-12T07:37:04.814Z,101383.33
2022-09-12T07:39:32.880Z,101382.14
2022-09-12T07:42:01.258Z,101384.77
2022-09-12T07:44:31.276Z,101382.59
2022-09-12T07:46:59.290Z,101389.92
2022-09-12T07:49:27.416Z,101392.09
2022-09-12T07:51:55.486Z,101398.33
2022-09-12T07:54:24.273Z,101398.46
2022-09-12T07:56:52.449Z,101395.98
2022-09-12T07:59:41.427Z,101402.05
2022-09-12T08:02:17.522Z,101402.30
2022-09-12T08:04:47.098Z,101404.83
2022-09-12T08:07:16.267Z,101405.47
2022-09-12T08:09:44.341Z,101412.39
2022-09-12T08:12:12.513Z,101409.98
2022-09-12T08:14:40.801Z,101412.48
2022-09-12T08:17:08.996Z,101414.25
2022-09-12T08:19:37.134Z,101413.48
2022-09-12T08:22:05.818Z,101412.93
2022-09-12T08:24:33.890Z,101417.55
2022-09-12T08:27:01.968Z,101417.65
2022-09-12T08:29:30.133Z,101419.84
2022-09-12T08:31:58.210Z,101423.11
2022-09-12T08:34:27.095Z,101424.06
2022-09-12T08:36:55.265Z,101425.49
2022-09-12T08:39:24.876Z,101423.72
2022-09-12T08:42:03.474Z,101421.01
2022-09-12T08:44:43.864Z,101424.34
2022-09-12T08:47:11.815Z,101423.45
2022-09-12T08:50:02.058Z,101423.90
2022-09-12T08:52:43.696Z,101432.71
2022-09-12T08:55:38.563Z,101428.36
2022-09-12T08:58:22.775Z,101430.69
2022-09-12T09:01:17.979Z,101431.61
2022-09-12T09:04:21.640Z,101434.16
2022-09-12T09:07:05.101Z,101437.13
2022-09-12T09:09:45.446Z,101436.70
2022-09-12T09:12:19.225Z,101434.24
2022-09-12T09:15:01.296Z,101435.98
2022-09-12T09:17:46.745Z,101437.37
2022-09-12T09:20:28.025Z,101437.52
2022-09-12T09:23:08.975Z,101438.94
2022-09-12T09:25:39.809Z,101438.98
2022-09-12T09:28:46.763Z,101441.17
2022-09-12T09:31:20.289Z,101441.38
2022-09-12T09:33:52.035Z,101437.57
2022-09-12T09:36:44.183Z,101436.58
2022-09-12T09:39:22.493Z,101438.21
2022-09-12T09:42:31.331Z,101434.61
2022-09-12T09:45:03.082Z,101436.06
2022-09-12T09:47:31.757Z,101434.98
2022-09-12T09:50:00.547Z,101437.92
2022-09-12T09:52:31.075Z,101438.61
2022-09-12T09:55:01.908Z,101434.13
2022-09-12T09:57:36.030Z,101441.09
2022-09-12T10:00:39.690Z,101444.17
2022-09-12T10:03:13.753Z,101448.52
2022-09-12T10:05:51.645Z,101445.02
2022-09-12T10:08:31.599Z,101452.07
2022-09-12T10:11:06.870Z,101445.73
2022-09-12T10:13:42.116Z,101446.58
2022-09-12T10:16:25.757Z,101448.98
2022-09-12T10:18:58.555Z,101449.63
2022-09-12T10:21:50.826Z,101450.83
2022-09-12T10:24:26.675Z,101448.05
2022-09-12T10:27:06.072Z,101443.55
2022-09-12T10:29:40.944Z,101445.73
2022-09-12T10:32:09.981Z,101438.02
2022-09-12T10:34:43.735Z,101442.02
2022-09-12T10:37:23.441Z,101443.21
2022-09-12T10:39:57.258Z,101445.63
2022-09-12T10:42:49.214Z,101446.55
2022-09-12T10:45:32.028Z,101442.56
2022-09-12T10:48:07.325Z,101437.41
2022-09-12T10:50:43.637Z,101442.30
2022-09-12T10:53:20.603Z,101449.22
2022-09-12T10:56:18.811Z,101452.92
2022-09-12T10:59:12.067Z,101456.27
2022-09-12T11:01:47.323Z,101453.87
2022-09-12T11:04:21.220Z,101454.05
2022-09-12T11:07:14.027Z,101459.48
2022-09-12T11:10:03.120Z,101451.05
2022-09-12T11:12:51.407Z,101451.91
2022-09-12T11:16:04.319Z,101446.73
2022-09-12T11:19:11.784Z,101447.46
2022-09-12T11:21:46.040Z,101451.14
2022-09-12T11:24:35.046Z,101455.61
2022-09-12T11:27:21.033Z,101451.86
2022-09-12T11:29:52.650Z,101457.88
2022-09-12T11:32:41.859Z,101460.52
2022-09-12T11:35:33.040Z,101469.04
2022-09-12T11:38:34.041Z,101464.27
2022-09-12T11:41:24.320Z,101465.11
2022-09-12T11:44:11.422Z,101462.11
2022-09-12T11:46:42.721Z,101463.23
2022-09-12T11:49:13.709Z,101460.73
2022-09-12T11:52:00.550Z,101463.17
2022-09-12T11:54:28.586Z,101461.17
2022-09-12T11:57:25.509Z,101461.93
2022-09-12T12:00:00.675Z,101458.24
2022-09-12T12:02:37.036Z,101458.42
2022-09-12T12:05:20.875Z,101457.58
2022-09-12T12:08:00.569Z,101458.26
2022-09-12T12:10:50.200Z,101461.77
2022-09-12T12:13:21.664Z,101466.41
2022-09-12T12:16:15.275Z,101467.06
2022-09-12T12:18:44.376Z,101465.73
2022-09-12T12:21:33.986Z,101464.14
2022-09-12T12:24:08.319Z,101467.67
2022-09-12T12:26:40.187Z,101469.57
2022-09-12T12:29:31.580Z,101471.33
2022-09-12T12:31:59.543Z,101473.22
2022-09-12T12:34:33.612Z,101476.30
2022-09-12T12:37:21.179Z,101483.77
2022-09-12T12:39:55.726Z,101479.50
2022-09-12T12:42:35.872Z,101478.31
2022-09-12T12:45:07.013Z,101480.11
2022-09-12T12:47:37.761Z,101474.57
2022-09-12T12:50:26.355Z,101473.95
2022-09-12T12:53:05.428Z,101476.98
2022-09-12T12:55:44.277Z,101482.13
2022-09-12T12:58:38.928Z,101487.74
2022-09-12T13:01:10.130Z,101487.25
2022-09-12T13:03:45.135Z,101492.55
2022-09-12T13:06:38.651Z,101491.14
2022-09-12T13:09:23.650Z,101491.41
2022-09-12T13:12:20.791Z,101489.77
2022-09-12T13:14:54.910Z,101491.03
2022-09-12T13:17:34.919Z,101488.06
2022-09-12T13:20:29.256Z,101484.76
2022-09-12T13:22:58.332Z,101482.21
2022-09-12T13:25:33.185Z,101484.64
2022-09-12T13:28:16.486Z,101486.33
2022-09-12T13:30:59.965Z,101486.98
2022-09-12T13:33:31.136Z,101485.87
2022-09-12T13:36:29.757Z,101483.73
2022-09-12T13:39:18.093Z,101486.98
2022-09-12T13:42:04.540Z,101492.83
2022-09-12T13:44:42.470Z,101489.52
2022-09-12T13:47:16.783Z,101488.51
2022-09-12T13:49:47.137Z,101488.33
2022-09-12T13:52:25.415Z,101486.83
2022-09-12T13:54:56.841Z,101479.17
2022-09-12T13:57:38.205Z,101481.33
2022-09-12T14:00:19.535Z,101483.56
2022-09-12T14:02:48.730Z,101479.59
2022-09-12T14:05:25.877Z,101480.44
2022-09-12T14:08:06.772Z,101477.11
2022-09-12T14:10:38.177Z,101476.51
2022-09-12T14:13:16.995Z,101478.72
2022-09-12T14:15:49.002Z,101478.65
2022-09-12T14:18:29.243Z,101474.89
2022-09-12T14:21:01.048Z,101483.02
2022-09-12T14:23:33.649Z,101485.73
2022-09-12T14:26:07.617Z,101479.04
2022-09-12T14:28:37.772Z,101481.02
2022-09-12T14:31:34.348Z,101478.01
2022-09-12T14:34:19.630Z,101480.68
2022-09-12T14:36:56.419Z,101478.37
2022-09-12T14:39:33.622Z,101471.46
2022-09-12T14:42:11.693Z,101472.98
2022-09-12T14:44:41.244Z,101471.81
2022-09-12T14:47:23.137Z,101471.31
2022-09-12T14:49:52.363Z,101471.48
2022-09-12T14:52:31.056Z,101471.48
2022-09-12T14:55:28.308Z,101470.91
2022-09-12T14:58:20.798Z,101467.00
2022-09-12T15:01:04.111Z,101474.66
2022-09-12T15:03:33.381Z,101475.42
2022-09-12T15:06:05.806Z,101479.23
2022-09-12T15:08:34.435Z,101478.37
2022-09-12T15:11:02.768Z,101482.11
2022-09-12T15:13:40.259Z,101484.95
2022-09-12T15:16:11.816Z,101482.67
2022-09-12T15:18:40.037Z,101480.92
2022-09-12T15:21:12.036Z,101480.09
2022-09-12T15:23:52.449Z,101478.77
2022-09-12T15:26:23.491Z,101479.58
2022-09-12T15:28:52.254Z,101479.65
2022-09-12T15:31:23.255Z,101482.13
2022-09-12T15:33:51.317Z,101478.84
2022-09-12T15:36:23.044Z,101481.70
2022-09-12T15:38:53.230Z,101483.71
2022-09-12T15:41:25.356Z,101479.86
2022-09-12T15:43:53.800Z,101486.73
2022-09-12T15:46:22.027Z,101488.83
2022-09-12T15:48:50.464Z,101487.25
2022-09-12T15:51:20.991Z,101489.58
2022-09-12T15:53:51.109Z,101491.54
2022-09-12T15:56:22.059Z,101493.52
2022-09-12T15:58:58.741Z,101494.09
2022-09-12T16:01:29.025Z,101491.84
2022-09-12T16:03:57.506Z,101491.54
2022-09-12T16:06:25.722Z,101494.07
2022-09-12T16:08:53.667Z,101489.77
2022-09-12T16:11:24.797Z,101486.88
2022-09-12T16:13:53.922Z,101485.94
2022-09-12T16:16:22.277Z,101486.77
2022-09-12T16:18:50.554Z,101481.60
2022-09-12T16:21:18.746Z,101479.23
2022-09-12T16:23:48.375Z,101479.30
2022-09-12T16:26:17.338Z,101483.08
2022-09-12T16:28:45.873Z,101484.08
2022-09-12T16:31:14.608Z,101487.21
2022-09-12T16:33:42.921Z,101481.86
2022-09-12T16:36:13.916Z,101481.80
2022-09-12T16:38:43.975Z,101482.42
2022-09-12T16:41:13.051Z,101486.74
2022-09-12T16:43:43.000Z,101483.14
2022-09-12T16:46:16.390Z,101481.52
2022-09-12T16:48:52.499Z,101480.95
2022-09-12T16:51:23.799Z,101475.78
2022-09-12T16:53:52.009Z,101474.49
2022-09-12T16:56:20.080Z,101471.40
2022-09-12T16:58:49.185Z,101475.20
2022-09-12T17:01:23.081Z,101475.61
2022-09-12T17:03:56.830Z,101471.09
2022-09-12T17:06:26.100Z,101477.34
2022-09-12T17:08:58.508Z,101474.25
2022-09-12T17:11:33.270Z,101475.56
2022-09-12T17:14:05.507Z,101478.27
2022-09-12T17:16:40.336Z,101476.75
2022-09-12T17:19:09.264Z,101476.98
2022-09-12T17:21:37.412Z,101478.95
2022-09-12T17:24:05.892Z,101479.52
2022-09-12T17:26:33.938Z,101479.05
2022-09-12T17:29:02.459Z,101476.48
2022-09-12T17:31:31.191Z,101476.36
2022-09-12T17:34:01.153Z,101481.86
2022-09-12T17:36:31.569Z,101477.70
2022-09-12T17:39:01.412Z,101479.16
2022-09-12T17:41:32.024Z,101481.13
2022-09-12T17:44:02.038Z,101484.17
2022-09-12T17:46:36.336Z,101485.30
2022-09-12T17:49:09.058Z,101487.31
2022-09-12T17:51:37.230Z,101488.08
2022-09-12T17:54:18.220Z,101494.47
2022-09-12T17:56:49.052Z,101491.91
2022-09-12T17:59:23.033Z,101492.04
2022-09-12T18:02:09.752Z,101490.34
2022-09-12T18:04:38.111Z,101489.20
2022-09-12T18:07:07.279Z,101489.96
2022-09-12T18:09:36.459Z,101491.77
2022-09-12T18:12:05.183Z,101488.86
2022-09-12T18:14:34.015Z,101485.59
2022-09-12T18:17:02.170Z,101484.28
2022-09-12T18:19:30.752Z,101486.30
2022-09-12T18:21:59.026Z,101485.69
2022-09-12T18:24:27.120Z,101486.84
2022-09-12T18:26:59.213Z,101489.55
2022-09-12T18:29:28.155Z,101488.77
2022-09-12T18:31:56.750Z,101487.44
2022-09-12T18:34:24.715Z,101491.38
2022-09-12T18:36:55.016Z,101491.45
2022-09-12T18:39:27.528Z,101496.77
2022-09-12T18:41:56.497Z,101497.36
2022-09-12T18:44:24.583Z,101498.46
2022-09-12T18:46:53.046Z,101497.65
2022-09-12T18:49:21.043Z,101494.19
2022-09-12T18:51:49.017Z,101496.00
2022-09-12T18:54:18.029Z,101496.77
2022-09-12T18:56:46.354Z,101500.14
2022-09-12T18:59:15.100Z,101497.38
2022-09-12T19:01:44.187Z,101497.93
2022-09-12T19:04:14.077Z,101497.80
2022-09-12T19:06:45.385Z,101493.27
2022-09-12T19:09:16.023Z,101495.23
2022-09-12T19:11:49.974Z,101492.98
2022-09-12T19:14:23.291Z,101494.40
2022-09-12T19:16:52.321Z,101496.17
2022-09-12T19:19:21.544Z,101497.94
2022-09-12T19:21:49.592Z,101492.54
2022-09-12T19:24:18.071Z,101489.39
2022-09-12T19:26:46.325Z,101492.91
2022-09-12T19:29:16.712Z,101496.23
2022-09-12T19:31:45.353Z,101496.95
2022-09-12T19:34:15.480Z,101491.37
2022-09-12T19:36:46.227Z,101491.03
2022-09-12T19:39:17.041Z,101489.83
2022-09-12T19:41:45.373Z,101483.89
2022-09-12T19:44:13.781Z,101482.51
2022-09-12T19:46:42.322Z,101476.05
2022-09-12T19:49:12.316Z,101476.56
2022-09-12T19:51:40.593Z,101476.04
2022-09-12T19:54:09.260Z,101470.27
2022-09-12T19:56:37.326Z,101467.14
2022-09-12T19:59:05.662Z,101466.96
2022-09-12T20:01:34.970Z,101464.34
2022-09-12T20:04:04.096Z,101461.73
2022-09-12T20:06:32.570Z,101461.21
2022-09-12T20:09:00.585Z,101457.73
2022-09-12T20:11:28.715Z,101460.17
2022-09-12T20:13:56.697Z,101454.76
2022-09-12T20:16:29.375Z,101455.80
2022-09-12T20:19:00.977Z,101449.00
2022-09-12T20:21:32.766Z,101443.59
2022-09-12T20:24:03.079Z,101448.65
2022-09-12T20:26:31.659Z,101449.52
2022-09-12T20:29:00.372Z,101445.85
2022-09-12T20:31:28.653Z,101444.46
2022-09-12T20:33:56.804Z,101445.15
2022-09-12T20:36:24.882Z,101444.29
2022-09-12T20:38:56.978Z,101444.29
2022-09-12T20:41:26.969Z,101444.80
2022-09-12T20:43:56.608Z,101441.31
2022-09-12T20:46:26.333Z,101437.98
2022-09-12T20:48:55.522Z,101439.73
2022-09-12T20:51:26.746Z,101437.64
2022-09-12T20:53:55.817Z,101435.02
2022-09-12T20:56:24.822Z,101432.58
2022-09-12T20:58:54.519Z,101432.40
2022-09-12T21:01:23.491Z,101427.51
2022-09-12T21:03:52.211Z,101427.86
2022-09-12T21:06:20.910Z,101427.51
2022-09-12T21:08:49.991Z,101423.67
2022-09-12T21:11:19.028Z,101426.98
2022-09-12T21:13:47.727Z,101426.80
2022-09-12T21:16:18.647Z,101424.00
2022-09-12T21:18:47.583Z,101426.44
2022-09-12T21:21:16.571Z,101432.02
2022-09-12T21:23:44.595Z,101431.15
2022-09-12T21:26:12.575Z,101426.26
2022-09-12T21:28:40.588Z,101421.54
2022-09-12T21:31:09.265Z,101422.58
2022-09-12T21:33:37.394Z,101423.45
2022-09-12T21:36:06.847Z,101423.97
2022-09-12T21:38:35.113Z,101421.88
2022-09-12T21:41:11.278Z,101416.80
2022-09-12T21:43:41.005Z,101419.95
2022-09-12T21:46:09.976Z,101420.10
2022-09-12T21:48:38.357Z,101422.89
2022-09-12T21:51:07.295Z,101421.13
2022-09-12T21:53:35.825Z,101422.31
2022-09-12T21:56:07.378Z,101424.56
2022-09-12T21:58:36.315Z,101423.16
2022-09-12T22:01:06.077Z,101422.79
2022-09-12T22:03:34.283Z,101422.95
2022-09-12T22:06:04.769Z,101426.05
2022-09-12T22:08:33.838Z,101420.63
2022-09-12T22:11:04.685Z,101417.99
2022-09-12T22:13:32.782Z,101412.41
2022-09-12T22:16:03.348Z,101415.88
2022-09-12T22:18:36.371Z,101417.60
2022-09-12T22:21:07.265Z,101417.95
2022-09-12T22:23:54.146Z,101416.73
2022-09-12T22:26:22.715Z,101414.63
2022-09-12T22:28:51.209Z,101412.19
2022-09-12T22:31:19.777Z,101410.27
2022-09-12T22:33:48.706Z,101401.72
2022-09-12T22:36:16.748Z,101409.04
2022-09-12T22:38:44.718Z,101407.98
2022-09-12T22:41:13.363Z,101409.55
2022-09-12T22:43:41.604Z,101407.45
2022-09-12T22:46:12.574Z,101411.28
2022-09-12T22:48:41.546Z,101411.63
2022-09-12T22:51:09.671Z,101404.63
2022-09-12T22:53:37.775Z,101408.28
2022-09-12T22:56:07.101Z,101410.71
2022-09-12T22:58:39.118Z,101405.30
2022-09-12T23:01:07.981Z,101398.31
2022-09-12T23:03:37.264Z,101395.34
2022-09-12T23:06:06.035Z,101395.52
2022-09-12T23:08:36.722Z,101391.66
2022-09-12T23:11:07.205Z,101390.79
2022-09-12T23:13:36.072Z,101390.42
2022-09-12T23:16:06.908Z,101386.73
2022-09-12T23:18:36.843Z,101381.85
2022-09-12T23:21:07.263Z,101386.70
2022-09-12T23:23:36.301Z,101384.60
2022-09-12T23:26:08.681Z,101389.12
2022-09-12T23:28:37.393Z,101389.13
2022-09-12T23:31:06.297Z,101384.59
2022-09-12T23:33:34.637Z,101376.73
2022-09-12T23:36:07.724Z,101379.16
2022-09-12T23:38:36.442Z,101377.41
2022-09-12T23:41:05.192Z,101374.28
2022-09-12T23:43:34.224Z,101374.27
2022-09-12T23:46:02.827Z,101375.84
2022-09-12T23:48:31.448Z,101374.27
2022-09-12T23:51:00.338Z,101371.64
2022-09-12T23:53:29.680Z,101371.29
2022-09-12T23:55:58.499Z,101373.89
2022-09-12T23:58:26.581Z,101370.04
